In Rescue
 
Open Full Screen Window  High Contrast Mode
Wind Gusting 21 knots
15
March 29, 2020 7:54 PM EDT
Present Weather: Rain
Weather Information
Wind Direction
  160 °
Wind Speed
  15 kt (17 mph)
Wind Gust
  21 kt (24 mph)
Altimeter
29.83 in
Visibility
5 SM
Temperature
09° C
48° F
Dewpoint
03° C
37° F
Humidity
66%
Sky Condition
Overcast @ 3,300 ft
Scattered @ 2,000 ft
MVFR

METAR KFSO 292354Z AUTO 16015G21KT 5SM RA SCT020 OVC033 09/03 A2983 RMK AO2 T00850034

FAA Disclaimer: The data displayed is for advisory purposes only and is not to be used for flight planning or operations.